sensor_id;sensor_type;location;lat;lon;timestamp;temperature;humidity
51908;DHT22;39320;53.214;6.556;2023-05-01T00:00:49;11.20;99.90
51908;DHT22;39320;53.214;6.556;2023-05-01T00:03:15;11.20;99.90
51908;DHT22;39320;53.214;6.556;2023-05-01T00:05:43;11.30;99.90
51908;DHT22;39320;53.214;6.556;2023-05-01T00:08:09;11.30;99.90
51908;DHT22;39320;53.214;6.556;2023-05-01T00:10:36;11.30;99.90
51908;DHT22;39320;53.214;6.556;2023-05-01T00:13:02;11.30;99.90
51908;DHT22;39320;53.214;6.556;2023-05-01T00:15:29;11.20;99.90
51908;DHT22;39320;53.214;6.556;2023-05-01T00:17:55;11.20;99.90
51908;DHT22;39320;53.214;6.556;2023-05-01T00:20:21;11.20;99.90
51908;DHT22;39320;53.214;6.556;2023-05-01T00:22:48;11.30;99.90
51908;DHT22;39320;53.214;6.556;2023-05-01T00:25:14;11.20;99.90
51908;DHT22;39320;53.214;6.556;2023-05-01T00:27:39;11.30;99.90
51908;DHT22;39320;53.214;6.556;2023-05-01T00:30:06;11.30;99.90
51908;DHT22;39320;53.214;6.556;2023-05-01T00:32:32;11.30;99.90
51908;DHT22;39320;53.214;6.556;2023-05-01T00:34:59;11.20;99.90
51908;DHT22;39320;53.214;6.556;2023-05-01T00:37:25;11.20;99.90
51908;DHT22;39320;53.214;6.556;2023-05-01T00:39:50;11.20;99.90
51908;DHT22;39320;53.214;6.556;2023-05-01T00:42:16;11.30;99.90
51908;DHT22;39320;53.214;6.556;2023-05-01T00:44:42;11.30;99.90
51908;DHT22;39320;53.214;6.556;2023-05-01T00:47:07;11.30;99.90
51908;DHT22;39320;53.214;6.556;2023-05-01T00:49:33;11.30;99.90
51908;DHT22;39320;53.214;6.556;2023-05-01T00:51:59;11.30;99.90
51908;DHT22;39320;53.214;6.556;2023-05-01T00:54:26;11.30;99.90
51908;DHT22;39320;53.214;6.556;2023-05-01T00:56:53;11.30;99.90
51908;DHT22;39320;53.214;6.556;2023-05-01T00:59:19;11.30;99.90
51908;DHT22;39320;53.214;6.556;2023-05-01T01:01:45;11.30;99.90
51908;DHT22;39320;53.214;6.556;2023-05-01T01:04:11;11.30;99.90
51908;DHT22;39320;53.214;6.556;2023-05-01T01:09:41;11.20;99.90
51908;DHT22;39320;53.214;6.556;2023-05-01T01:12:38;11.20;99.90
51908;DHT22;39320;53.214;6.556;2023-05-01T01:15:33;11.20;99.90
51908;DHT22;39320;53.214;6.556;2023-05-01T01:18:11;11.20;99.90
51908;DHT22;39320;53.214;6.556;2023-05-01T01:26:32;11.10;99.90
51908;DHT22;39320;53.214;6.556;2023-05-01T01:34:54;11.00;99.90
51908;DHT22;39320;53.214;6.556;2023-05-01T01:37:29;11.00;99.90
51908;DHT22;39320;53.214;6.556;2023-05-01T01:40:05;11.10;99.90
51908;DHT22;39320;53.214;6.556;2023-05-01T01:42:54;11.10;99.90
51908;DHT22;39320;53.214;6.556;2023-05-01T01:45:24;11.10;99.90
51908;DHT22;39320;53.214;6.556;2023-05-01T01:47:51;11.10;99.90
51908;DHT22;39320;53.214;6.556;2023-05-01T01:50:23;11.20;99.90
51908;DHT22;39320;53.214;6.556;2023-05-01T01:52:51;11.10;99.90
51908;DHT22;39320;53.214;6.556;2023-05-01T01:55:21;11.10;99.90
51908;DHT22;39320;53.214;6.556;2023-05-01T01:57:51;11.10;99.90
51908;DHT22;39320;53.214;6.556;2023-05-01T02:00:17;11.00;99.90
51908;DHT22;39320;53.214;6.556;2023-05-01T02:02:43;11.00;99.90
51908;DHT22;39320;53.214;6.556;2023-05-01T02:05:14;11.00;99.90
51908;DHT22;39320;53.214;6.556;2023-05-01T02:07:41;11.00;99.90
51908;DHT22;39320;53.214;6.556;2023-05-01T02:10:09;10.90;99.90
51908;DHT22;39320;53.214;6.556;2023-05-01T02:12:36;10.90;99.90
51908;DHT22;39320;53.214;6.556;2023-05-01T02:15:04;10.90;99.90
51908;DHT22;39320;53.214;6.556;2023-05-01T02:17:31;10.90;99.90
51908;DHT22;39320;53.214;6.556;2023-05-01T02:19:58;10.90;99.90
51908;DHT22;39320;53.214;6.556;2023-05-01T02:22:25;10.90;99.90
51908;DHT22;39320;53.214;6.556;2023-05-01T02:24:52;10.90;99.90
51908;DHT22;39320;53.214;6.556;2023-05-01T02:27:36;10.90;99.90
51908;DHT22;39320;53.214;6.556;2023-05-01T02:30:03;10.90;99.90
51908;DHT22;39320;53.214;6.556;2023-05-01T02:32:30;10.90;99.90
51908;DHT22;39320;53.214;6.556;2023-05-01T02:34:56;10.80;99.90
51908;DHT22;39320;53.214;6.556;2023-05-01T02:37:22;10.80;99.90
51908;DHT22;39320;53.214;6.556;2023-05-01T02:39:48;10.80;99.90
51908;DHT22;39320;53.214;6.556;2023-05-01T02:42:15;10.80;99.90
51908;DHT22;39320;53.214;6.556;2023-05-01T02:44:54;10.80;99.90
51908;DHT22;39320;53.214;6.556;2023-05-01T02:47:22;10.80;99.90
51908;DHT22;39320;53.214;6.556;2023-05-01T02:49:50;10.70;99.90
51908;DHT22;39320;53.214;6.556;2023-05-01T02:52:18;10.70;99.90
51908;DHT22;39320;53.214;6.556;2023-05-01T02:54:44;10.80;99.90
51908;DHT22;39320;53.214;6.556;2023-05-01T02:57:10;10.80;99.90
51908;DHT22;39320;53.214;6.556;2023-05-01T02:59:36;10.70;99.90
51908;DHT22;39320;53.214;6.556;2023-05-01T03:02:02;10.70;99.90
51908;DHT22;39320;53.214;6.556;2023-05-01T03:04:28;10.70;99.90
51908;DHT22;39320;53.214;6.556;2023-05-01T03:06:54;10.60;99.90
51908;DHT22;39320;53.214;6.556;2023-05-01T03:09:21;10.70;99.90
51908;DHT22;39320;53.214;6.556;2023-05-01T03:11:47;10.70;99.90
51908;DHT22;39320;53.214;6.556;2023-05-01T03:14:13;10.60;99.90
51908;DHT22;39320;53.214;6.556;2023-05-01T03:16:39;10.60;99.90
51908;DHT22;39320;53.214;6.556;2023-05-01T03:19:05;10.60;99.90
51908;DHT22;39320;53.214;6.556;2023-05-01T03:21:32;10.60;99.90
51908;DHT22;39320;53.214;6.556;2023-05-01T03:23:58;10.50;99.90
51908;DHT22;39320;53.214;6.556;2023-05-01T03:26:24;10.50;99.90
51908;DHT22;39320;53.214;6.556;2023-05-01T03:28:50;10.50;99.90
51908;DHT22;39320;53.214;6.556;2023-05-01T03:31:16;10.50;99.90
51908;DHT22;39320;53.214;6.556;2023-05-01T03:33:42;10.50;99.90
51908;DHT22;39320;53.214;6.556;2023-05-01T03:36:08;10.50;99.90
51908;DHT22;39320;53.214;6.556;2023-05-01T03:38:35;10.50;99.90
51908;DHT22;39320;53.214;6.556;2023-05-01T03:41:01;10.50;99.90
51908;DHT22;39320;53.214;6.556;2023-05-01T03:43:30;10.50;99.90
51908;DHT22;39320;53.214;6.556;2023-05-01T03:45:56;10.50;99.90
51908;DHT22;39320;53.214;6.556;2023-05-01T03:48:22;10.40;99.90
51908;DHT22;39320;53.214;6.556;2023-05-01T03:50:49;10.50;99.90
51908;DHT22;39320;53.214;6.556;2023-05-01T03:53:15;10.40;99.90
51908;DHT22;39320;53.214;6.556;2023-05-01T03:55:41;10.40;99.90
51908;DHT22;39320;53.214;6.556;2023-05-01T03:58:07;10.40;99.90
51908;DHT22;39320;53.214;6.556;2023-05-01T04:00:33;10.30;99.90
51908;DHT22;39320;53.214;6.556;2023-05-01T04:02:58;10.30;99.90
51908;DHT22;39320;53.214;6.556;2023-05-01T04:05:24;10.20;99.90
51908;DHT22;39320;53.214;6.556;2023-05-01T04:07:50;10.20;99.90
51908;DHT22;39320;53.214;6.556;2023-05-01T04:10:16;10.20;99.90
51908;DHT22;39320;53.214;6.556;2023-05-01T04:12:42;10.10;99.90
51908;DHT22;39320;53.214;6.556;2023-05-01T04:15:08;10.10;99.90
51908;DHT22;39320;53.214;6.556;2023-05-01T04:17:35;10.20;99.90
51908;DHT22;39320;53.214;6.556;2023-05-01T04:20:02;10.20;99.90
51908;DHT22;39320;53.214;6.556;2023-05-01T04:22:30;10.20;99.90
51908;DHT22;39320;53.214;6.556;2023-05-01T04:24:56;10.10;99.90
51908;DHT22;39320;53.214;6.556;2023-05-01T04:27:22;10.10;99.90
51908;DHT22;39320;53.214;6.556;2023-05-01T04:29:47;10.10;99.90
51908;DHT22;39320;53.214;6.556;2023-05-01T04:32:19;10.10;99.90
51908;DHT22;39320;53.214;6.556;2023-05-01T04:34:45;10.10;99.90
51908;DHT22;39320;53.214;6.556;2023-05-01T04:37:11;10.10;99.90
51908;DHT22;39320;53.214;6.556;2023-05-01T04:39:37;10.10;99.90
51908;DHT22;39320;53.214;6.556;2023-05-01T04:42:03;10.10;99.90
51908;DHT22;39320;53.214;6.556;2023-05-01T04:44:29;10.10;99.90
51908;DHT22;39320;53.214;6.556;2023-05-01T04:46:55;10.10;99.90
51908;DHT22;39320;53.214;6.556;2023-05-01T04:49:21;10.00;99.90
51908;DHT22;39320;53.214;6.556;2023-05-01T04:51:47;10.10;99.90
51908;DHT22;39320;53.214;6.556;2023-05-01T04:54:13;10.10;99.90
51908;DHT22;39320;53.214;6.556;2023-05-01T04:56:39;10.10;99.90
51908;DHT22;39320;53.214;6.556;2023-05-01T04:59:04;10.10;99.90
51908;DHT22;39320;53.214;6.556;2023-05-01T05:01:30;10.10;99.90
51908;DHT22;39320;53.214;6.556;2023-05-01T05:03:56;10.20;99.90
51908;DHT22;39320;53.214;6.556;2023-05-01T05:06:22;10.20;99.90
51908;DHT22;39320;53.214;6.556;2023-05-01T05:08:48;10.20;99.90
51908;DHT22;39320;53.214;6.556;2023-05-01T05:11:17;10.20;99.90
51908;DHT22;39320;53.214;6.556;2023-05-01T05:13:44;10.20;99.90
51908;DHT22;39320;53.214;6.556;2023-05-01T05:16:10;10.20;99.90
51908;DHT22;39320;53.214;6.556;2023-05-01T05:18:36;10.20;99.90
51908;DHT22;39320;53.214;6.556;2023-05-01T05:21:06;10.30;99.90
51908;DHT22;39320;53.214;6.556;2023-05-01T05:23:33;10.20;99.90
51908;DHT22;39320;53.214;6.556;2023-05-01T05:25:59;10.30;99.90
51908;DHT22;39320;53.214;6.556;2023-05-01T05:28:29;10.20;99.90
51908;DHT22;39320;53.214;6.556;2023-05-01T05:30:56;10.30;99.90
51908;DHT22;39320;53.214;6.556;2023-05-01T05:33:22;10.30;99.90
51908;DHT22;39320;53.214;6.556;2023-05-01T05:35:50;10.40;99.90
51908;DHT22;39320;53.214;6.556;2023-05-01T05:38:16;10.40;99.90
51908;DHT22;39320;53.214;6.556;2023-05-01T05:40:42;10.40;99.90
51908;DHT22;39320;53.214;6.556;2023-05-01T05:43:08;10.40;99.90
51908;DHT22;39320;53.214;6.556;2023-05-01T05:45:36;10.40;99.90
51908;DHT22;39320;53.214;6.556;2023-05-01T05:48:02;10.40;99.90
51908;DHT22;39320;53.214;6.556;2023-05-01T05:50:28;10.40;99.90
51908;DHT22;39320;53.214;6.556;2023-05-01T05:52:54;10.40;99.90
51908;DHT22;39320;53.214;6.556;2023-05-01T05:55:20;10.40;99.90
51908;DHT22;39320;53.214;6.556;2023-05-01T05:57:46;10.50;99.90
51908;DHT22;39320;53.214;6.556;2023-05-01T06:00:12;10.50;99.90
51908;DHT22;39320;53.214;6.556;2023-05-01T06:02:38;10.50;99.90
51908;DHT22;39320;53.214;6.556;2023-05-01T06:05:05;10.60;99.90
51908;DHT22;39320;53.214;6.556;2023-05-01T06:07:31;10.50;99.90
51908;DHT22;39320;53.214;6.556;2023-05-01T06:09:56;10.60;99.90
51908;DHT22;39320;53.214;6.556;2023-05-01T06:12:28;10.70;99.90
51908;DHT22;39320;53.214;6.556;2023-05-01T06:14:54;10.70;99.90
51908;DHT22;39320;53.214;6.556;2023-05-01T06:17:20;10.70;99.90
51908;DHT22;39320;53.214;6.556;2023-05-01T06:19:46;10.70;99.90
51908;DHT22;39320;53.214;6.556;2023-05-01T06:22:12;10.70;99.90
51908;DHT22;39320;53.214;6.556;2023-05-01T06:24:38;10.80;99.90
51908;DHT22;39320;53.214;6.556;2023-05-01T06:27:04;10.90;99.90
51908;DHT22;39320;53.214;6.556;2023-05-01T06:29:30;10.90;99.90
51908;DHT22;39320;53.214;6.556;2023-05-01T06:31:56;10.90;99.90
51908;DHT22;39320;53.214;6.556;2023-05-01T06:34:22;10.90;99.90
51908;DHT22;39320;53.214;6.556;2023-05-01T06:36:48;10.90;99.90
51908;DHT22;39320;53.214;6.556;2023-05-01T06:39:14;10.90;99.90
51908;DHT22;39320;53.214;6.556;2023-05-01T06:41:40;10.90;99.90
51908;DHT22;39320;53.214;6.556;2023-05-01T06:44:06;11.00;99.90
51908;DHT22;39320;53.214;6.556;2023-05-01T06:46:31;11.00;99.90
51908;DHT22;39320;53.214;6.556;2023-05-01T06:48:57;11.00;99.90
51908;DHT22;39320;53.214;6.556;2023-05-01T06:51:25;11.00;99.90
51908;DHT22;39320;53.214;6.556;2023-05-01T06:53:52;11.10;99.90
51908;DHT22;39320;53.214;6.556;2023-05-01T06:56:17;11.10;99.90
51908;DHT22;39320;53.214;6.556;2023-05-01T06:58:43;11.20;99.90
51908;DHT22;39320;53.214;6.556;2023-05-01T07:01:09;11.20;99.90
51908;DHT22;39320;53.214;6.556;2023-05-01T07:03:34;11.30;99.90
51908;DHT22;39320;53.214;6.556;2023-05-01T07:06:00;11.30;99.90
51908;DHT22;39320;53.214;6.556;2023-05-01T07:08:26;11.30;99.90
51908;DHT22;39320;53.214;6.556;2023-05-01T07:10:52;11.30;99.90
51908;DHT22;39320;53.214;6.556;2023-05-01T07:13:18;11.40;99.90
51908;DHT22;39320;53.214;6.556;2023-05-01T07:15:44;11.40;99.90
51908;DHT22;39320;53.214;6.556;2023-05-01T07:18:10;11.50;99.90
51908;DHT22;39320;53.214;6.556;2023-05-01T07:20:36;11.50;99.90
51908;DHT22;39320;53.214;6.556;2023-05-01T07:23:02;11.60;99.90
51908;DHT22;39320;53.214;6.556;2023-05-01T07:25:29;11.60;99.90
51908;DHT22;39320;53.214;6.556;2023-05-01T07:27:55;11.70;99.90
51908;DHT22;39320;53.214;6.556;2023-05-01T07:30:21;11.70;99.90
51908;DHT22;39320;53.214;6.556;2023-05-01T07:32:46;11.80;99.90
51908;DHT22;39320;53.214;6.556;2023-05-01T07:35:12;11.90;99.90
51908;DHT22;39320;53.214;6.556;2023-05-01T07:37:38;11.90;99.90
51908;DHT22;39320;53.214;6.556;2023-05-01T07:40:04;11.90;99.90
51908;DHT22;39320;53.214;6.556;2023-05-01T07:42:30;12.00;99.90
51908;DHT22;39320;53.214;6.556;2023-05-01T07:44:56;12.20;99.90
51908;DHT22;39320;53.214;6.556;2023-05-01T07:47:21;12.20;99.90
51908;DHT22;39320;53.214;6.556;2023-05-01T07:49:47;12.30;99.90
51908;DHT22;39320;53.214;6.556;2023-05-01T07:52:14;12.40;99.90
51908;DHT22;39320;53.214;6.556;2023-05-01T07:54:40;12.40;99.90
51908;DHT22;39320;53.214;6.556;2023-05-01T07:57:06;12.50;99.90
51908;DHT22;39320;53.214;6.556;2023-05-01T07:59:32;12.50;99.90
51908;DHT22;39320;53.214;6.556;2023-05-01T08:01:58;12.50;99.90
51908;DHT22;39320;53.214;6.556;2023-05-01T08:04:23;12.60;99.90
51908;DHT22;39320;53.214;6.556;2023-05-01T08:06:56;12.60;99.90
51908;DHT22;39320;53.214;6.556;2023-05-01T08:09:22;12.70;99.90
51908;DHT22;39320;53.214;6.556;2023-05-01T08:11:48;12.70;99.90
51908;DHT22;39320;53.214;6.556;2023-05-01T08:14:13;12.70;99.90
51908;DHT22;39320;53.214;6.556;2023-05-01T08:16:42;12.70;99.90
51908;DHT22;39320;53.214;6.556;2023-05-01T08:19:08;12.70;99.90
51908;DHT22;39320;53.214;6.556;2023-05-01T08:21:34;12.80;99.90
51908;DHT22;39320;53.214;6.556;2023-05-01T08:24:02;12.80;99.90
51908;DHT22;39320;53.214;6.556;2023-05-01T08:26:29;12.90;99.90
51908;DHT22;39320;53.214;6.556;2023-05-01T08:28:54;12.90;99.90
51908;DHT22;39320;53.214;6.556;2023-05-01T08:31:20;12.90;99.90
51908;DHT22;39320;53.214;6.556;2023-05-01T08:33:49;13.00;99.90
51908;DHT22;39320;53.214;6.556;2023-05-01T08:36:15;13.00;99.90
51908;DHT22;39320;53.214;6.556;2023-05-01T08:38:40;13.10;99.90
51908;DHT22;39320;53.214;6.556;2023-05-01T08:41:09;13.10;99.90
51908;DHT22;39320;53.214;6.556;2023-05-01T08:43:40;13.20;99.90
51908;DHT22;39320;53.214;6.556;2023-05-01T08:46:08;13.20;99.90
51908;DHT22;39320;53.214;6.556;2023-05-01T08:48:39;13.20;99.90
51908;DHT22;39320;53.214;6.556;2023-05-01T08:51:09;13.30;99.90
51908;DHT22;39320;53.214;6.556;2023-05-01T08:53:40;13.30;99.90
51908;DHT22;39320;53.214;6.556;2023-05-01T08:56:08;13.30;99.90
51908;DHT22;39320;53.214;6.556;2023-05-01T08:58:37;13.40;99.90
51908;DHT22;39320;53.214;6.556;2023-05-01T09:01:05;13.40;99.90
51908;DHT22;39320;53.214;6.556;2023-05-01T09:03:32;13.40;99.90
51908;DHT22;39320;53.214;6.556;2023-05-01T09:06:01;13.40;99.90
51908;DHT22;39320;53.214;6.556;2023-05-01T09:08:28;13.50;99.90
51908;DHT22;39320;53.214;6.556;2023-05-01T09:10:55;13.50;99.90
51908;DHT22;39320;53.214;6.556;2023-05-01T09:13:24;13.50;99.90
51908;DHT22;39320;53.214;6.556;2023-05-01T09:15:50;13.50;99.90
51908;DHT22;39320;53.214;6.556;2023-05-01T09:18:15;13.60;99.90
51908;DHT22;39320;53.214;6.556;2023-05-01T09:20:41;13.60;99.90
51908;DHT22;39320;53.214;6.556;2023-05-01T09:23:16;13.60;99.90
51908;DHT22;39320;53.214;6.556;2023-05-01T09:25:42;13.70;99.90
51908;DHT22;39320;53.214;6.556;2023-05-01T09:28:08;13.70;99.90
51908;DHT22;39320;53.214;6.556;2023-05-01T09:30:36;13.70;99.90
51908;DHT22;39320;53.214;6.556;2023-05-01T09:33:09;13.70;99.90
51908;DHT22;39320;53.214;6.556;2023-05-01T09:38:24;13.80;99.10
51908;DHT22;39320;53.214;6.556;2023-05-01T09:40:55;13.80;99.70
51908;DHT22;39320;53.214;6.556;2023-05-01T09:43:39;13.80;99.60
51908;DHT22;39320;53.214;6.556;2023-05-01T09:46:08;13.80;98.70
51908;DHT22;39320;53.214;6.556;2023-05-01T09:48:34;13.80;99.20
51908;DHT22;39320;53.214;6.556;2023-05-01T09:51:23;13.80;99.00
51908;DHT22;39320;53.214;6.556;2023-05-01T09:53:50;13.80;98.30
51908;DHT22;39320;53.214;6.556;2023-05-01T09:56:17;13.90;99.10
51908;DHT22;39320;53.214;6.556;2023-05-01T09:58:43;13.90;98.60
51908;DHT22;39320;53.214;6.556;2023-05-01T10:01:09;13.90;98.50
51908;DHT22;39320;53.214;6.556;2023-05-01T10:03:35;13.90;98.30
51908;DHT22;39320;53.214;6.556;2023-05-01T10:06:02;14.00;98.30
51908;DHT22;39320;53.214;6.556;2023-05-01T10:08:48;14.00;98.00
51908;DHT22;39320;53.214;6.556;2023-05-01T10:11:15;14.10;96.90
51908;DHT22;39320;53.214;6.556;2023-05-01T10:13:41;14.10;97.70
51908;DHT22;39320;53.214;6.556;2023-05-01T10:16:07;14.10;97.30
51908;DHT22;39320;53.214;6.556;2023-05-01T10:18:54;14.20;97.20
51908;DHT22;39320;53.214;6.556;2023-05-01T10:21:20;14.30;97.10
51908;DHT22;39320;53.214;6.556;2023-05-01T10:23:46;14.30;97.00
51908;DHT22;39320;53.214;6.556;2023-05-01T10:26:16;14.40;96.80
51908;DHT22;39320;53.214;6.556;2023-05-01T10:28:46;14.40;96.70
51908;DHT22;39320;53.214;6.556;2023-05-01T10:31:12;14.40;96.80
51908;DHT22;39320;53.214;6.556;2023-05-01T10:33:44;14.40;97.10
51908;DHT22;39320;53.214;6.556;2023-05-01T10:36:16;14.40;98.10
51908;DHT22;39320;53.214;6.556;2023-05-01T10:38:43;14.50;98.80
51908;DHT22;39320;53.214;6.556;2023-05-01T10:41:13;14.50;99.30
51908;DHT22;39320;53.214;6.556;2023-05-01T10:43:40;14.60;99.70
51908;DHT22;39320;53.214;6.556;2023-05-01T10:51:17;14.60;99.40
51908;DHT22;39320;53.214;6.556;2023-05-01T10:53:45;14.60;99.60
51908;DHT22;39320;53.214;6.556;2023-05-01T10:59:00;14.70;99.90
51908;DHT22;39320;53.214;6.556;2023-05-01T11:01:36;14.70;99.90
51908;DHT22;39320;53.214;6.556;2023-05-01T11:04:05;14.80;99.90
51908;DHT22;39320;53.214;6.556;2023-05-01T11:06:34;14.80;99.90
51908;DHT22;39320;53.214;6.556;2023-05-01T11:09:01;14.90;99.90
51908;DHT22;39320;53.214;6.556;2023-05-01T11:14:03;15.00;99.90
51908;DHT22;39320;53.214;6.556;2023-05-01T11:21:45;15.10;99.90
51908;DHT22;39320;53.214;6.556;2023-05-01T11:24:12;15.00;99.90
51908;DHT22;39320;53.214;6.556;2023-05-01T11:26:39;15.10;99.90
51908;DHT22;39320;53.214;6.556;2023-05-01T11:29:06;15.10;99.90
51908;DHT22;39320;53.214;6.556;2023-05-01T11:31:33;15.20;99.90
51908;DHT22;39320;53.214;6.556;2023-05-01T11:34:00;15.30;99.90
51908;DHT22;39320;53.214;6.556;2023-05-01T11:36:27;15.40;99.90
51908;DHT22;39320;53.214;6.556;2023-05-01T11:38:54;15.50;99.90
51908;DHT22;39320;53.214;6.556;2023-05-01T11:41:27;15.50;99.90
51908;DHT22;39320;53.214;6.556;2023-05-01T11:43:59;15.50;99.90
51908;DHT22;39320;53.214;6.556;2023-05-01T11:46:29;15.50;99.90
51908;DHT22;39320;53.214;6.556;2023-05-01T11:48:57;15.60;99.90
51908;DHT22;39320;53.214;6.556;2023-05-01T11:51:24;15.60;99.90
51908;DHT22;39320;53.214;6.556;2023-05-01T11:54:02;15.60;99.90
51908;DHT22;39320;53.214;6.556;2023-05-01T11:56:30;15.60;99.90
51908;DHT22;39320;53.214;6.556;2023-05-01T11:59:12;15.60;99.90
51908;DHT22;39320;53.214;6.556;2023-05-01T12:01:39;15.60;99.90
51908;DHT22;39320;53.214;6.556;2023-05-01T12:04:08;15.60;99.90
51908;DHT22;39320;53.214;6.556;2023-05-01T12:06:42;15.60;99.90
51908;DHT22;39320;53.214;6.556;2023-05-01T12:09:16;15.60;99.90
51908;DHT22;39320;53.214;6.556;2023-05-01T12:11:42;15.70;99.90
51908;DHT22;39320;53.214;6.556;2023-05-01T12:14:09;15.70;99.90
51908;DHT22;39320;53.214;6.556;2023-05-01T12:16:35;15.70;99.90
51908;DHT22;39320;53.214;6.556;2023-05-01T12:19:03;15.70;99.90
51908;DHT22;39320;53.214;6.556;2023-05-01T12:21:29;15.70;99.90
51908;DHT22;39320;53.214;6.556;2023-05-01T12:24:09;15.80;99.90
51908;DHT22;39320;53.214;6.556;2023-05-01T12:26:36;15.80;99.90
51908;DHT22;39320;53.214;6.556;2023-05-01T12:29:06;15.70;99.90
51908;DHT22;39320;53.214;6.556;2023-05-01T12:31:33;15.80;99.90
51908;DHT22;39320;53.214;6.556;2023-05-01T12:34:06;15.90;99.90
51908;DHT22;39320;53.214;6.556;2023-05-01T12:36:35;15.80;99.90
51908;DHT22;39320;53.214;6.556;2023-05-01T12:41:40;15.90;99.90
51908;DHT22;39320;53.214;6.556;2023-05-01T12:44:22;15.90;99.90
51908;DHT22;39320;53.214;6.556;2023-05-01T12:47:02;16.00;99.90
51908;DHT22;39320;53.214;6.556;2023-05-01T12:49:29;15.90;99.90
51908;DHT22;39320;53.214;6.556;2023-05-01T12:52:02;15.90;99.90
51908;DHT22;39320;53.214;6.556;2023-05-01T12:54:32;15.90;99.90
51908;DHT22;39320;53.214;6.556;2023-05-01T12:57:15;15.90;99.90
51908;DHT22;39320;53.214;6.556;2023-05-01T12:59:45;15.90;99.90
51908;DHT22;39320;53.214;6.556;2023-05-01T13:02:13;16.00;99.90
51908;DHT22;39320;53.214;6.556;2023-05-01T13:04:40;15.90;99.90
51908;DHT22;39320;53.214;6.556;2023-05-01T13:07:15;16.00;99.90
51908;DHT22;39320;53.214;6.556;2023-05-01T13:09:51;16.00;99.90
51908;DHT22;39320;53.214;6.556;2023-05-01T13:12:17;16.00;99.90
51908;DHT22;39320;53.214;6.556;2023-05-01T13:14:43;15.90;99.90
51908;DHT22;39320;53.214;6.556;2023-05-01T13:17:20;15.80;99.90
51908;DHT22;39320;53.214;6.556;2023-05-01T13:19:55;15.80;99.90
51908;DHT22;39320;53.214;6.556;2023-05-01T13:22:47;15.70;99.90
51908;DHT22;39320;53.214;6.556;2023-05-01T13:25:15;15.80;99.90
51908;DHT22;39320;53.214;6.556;2023-05-01T13:27:50;15.80;99.90
51908;DHT22;39320;53.214;6.556;2023-05-01T13:30:30;15.80;99.90
51908;DHT22;39320;53.214;6.556;2023-05-01T13:32:55;15.80;99.90
51908;DHT22;39320;53.214;6.556;2023-05-01T13:35:23;15.80;99.90
51908;DHT22;39320;53.214;6.556;2023-05-01T13:37:50;15.80;99.90
51908;DHT22;39320;53.214;6.556;2023-05-01T13:40:16;15.90;99.90
51908;DHT22;39320;53.214;6.556;2023-05-01T13:42:43;15.80;99.90
51908;DHT22;39320;53.214;6.556;2023-05-01T13:45:10;15.80;99.90
51908;DHT22;39320;53.214;6.556;2023-05-01T13:47:38;15.80;99.90
51908;DHT22;39320;53.214;6.556;2023-05-01T13:50:12;15.80;99.90
51908;DHT22;39320;53.214;6.556;2023-05-01T13:52:42;15.70;99.90
51908;DHT22;39320;53.214;6.556;2023-05-01T13:55:09;15.70;99.90
51908;DHT22;39320;53.214;6.556;2023-05-01T13:57:37;15.70;99.90
51908;DHT22;39320;53.214;6.556;2023-05-01T14:00:12;15.70;99.90
51908;DHT22;39320;53.214;6.556;2023-05-01T14:02:42;15.60;99.90
51908;DHT22;39320;53.214;6.556;2023-05-01T14:05:08;15.60;99.90
51908;DHT22;39320;53.214;6.556;2023-05-01T14:07:49;15.50;99.90
51908;DHT22;39320;53.214;6.556;2023-05-01T14:10:15;15.50;99.90
51908;DHT22;39320;53.214;6.556;2023-05-01T14:12:41;15.50;99.90
51908;DHT22;39320;53.214;6.556;2023-05-01T14:15:08;15.50;99.90
51908;DHT22;39320;53.214;6.556;2023-05-01T14:17:35;15.50;99.90
51908;DHT22;39320;53.214;6.556;2023-05-01T14:20:06;15.40;99.90
51908;DHT22;39320;53.214;6.556;2023-05-01T14:25:04;15.40;99.90
51908;DHT22;39320;53.214;6.556;2023-05-01T14:27:31;15.40;99.90
51908;DHT22;39320;53.214;6.556;2023-05-01T14:29:57;15.40;99.90
51908;DHT22;39320;53.214;6.556;2023-05-01T14:32:23;15.40;99.90
51908;DHT22;39320;53.214;6.556;2023-05-01T14:34:48;15.50;99.90
51908;DHT22;39320;53.214;6.556;2023-05-01T14:37:14;15.40;99.90
51908;DHT22;39320;53.214;6.556;2023-05-01T14:39:40;15.40;99.90
51908;DHT22;39320;53.214;6.556;2023-05-01T14:42:06;15.40;99.90
51908;DHT22;39320;53.214;6.556;2023-05-01T14:44:32;15.40;99.90
51908;DHT22;39320;53.214;6.556;2023-05-01T14:46:58;15.40;99.90
51908;DHT22;39320;53.214;6.556;2023-05-01T14:49:25;15.40;99.90
51908;DHT22;39320;53.214;6.556;2023-05-01T14:51:51;15.40;99.90
51908;DHT22;39320;53.214;6.556;2023-05-01T14:54:18;15.40;99.90
51908;DHT22;39320;53.214;6.556;2023-05-01T14:56:46;15.40;99.90
51908;DHT22;39320;53.214;6.556;2023-05-01T14:59:13;15.40;99.90
51908;DHT22;39320;53.214;6.556;2023-05-01T15:01:39;15.30;99.90
51908;DHT22;39320;53.214;6.556;2023-05-01T15:04:05;15.40;99.90
51908;DHT22;39320;53.214;6.556;2023-05-01T15:06:34;15.30;99.90
51908;DHT22;39320;53.214;6.556;2023-05-01T15:09:01;15.40;99.90
51908;DHT22;39320;53.214;6.556;2023-05-01T15:11:27;15.30;99.90
51908;DHT22;39320;53.214;6.556;2023-05-01T15:13:54;15.40;99.90
51908;DHT22;39320;53.214;6.556;2023-05-01T15:16:23;15.40;99.90
51908;DHT22;39320;53.214;6.556;2023-05-01T15:18:49;15.30;99.90
51908;DHT22;39320;53.214;6.556;2023-05-01T15:21:15;15.30;99.90
51908;DHT22;39320;53.214;6.556;2023-05-01T15:23:41;15.30;99.90
51908;DHT22;39320;53.214;6.556;2023-05-01T15:26:12;15.30;99.90
51908;DHT22;39320;53.214;6.556;2023-05-01T15:28:38;15.30;99.90
51908;DHT22;39320;53.214;6.556;2023-05-01T15:31:04;15.30;99.90
51908;DHT22;39320;53.214;6.556;2023-05-01T15:33:33;15.30;99.90
51908;DHT22;39320;53.214;6.556;2023-05-01T15:35:59;15.30;99.90
51908;DHT22;39320;53.214;6.556;2023-05-01T15:38:24;15.30;99.90
51908;DHT22;39320;53.214;6.556;2023-05-01T15:40:52;15.30;99.90
51908;DHT22;39320;53.214;6.556;2023-05-01T15:43:18;15.20;99.90
51908;DHT22;39320;53.214;6.556;2023-05-01T15:45:45;15.20;99.90
51908;DHT22;39320;53.214;6.556;2023-05-01T15:48:10;15.20;99.90
51908;DHT22;39320;53.214;6.556;2023-05-01T15:50:36;15.20;99.90
51908;DHT22;39320;53.214;6.556;2023-05-01T15:53:02;15.20;99.90
51908;DHT22;39320;53.214;6.556;2023-05-01T15:55:28;15.20;99.90
51908;DHT22;39320;53.214;6.556;2023-05-01T15:57:53;15.20;99.90
51908;DHT22;39320;53.214;6.556;2023-05-01T16:00:19;15.20;99.90
51908;DHT22;39320;53.214;6.556;2023-05-01T16:02:46;15.20;99.90
51908;DHT22;39320;53.214;6.556;2023-05-01T16:05:15;15.20;99.90
51908;DHT22;39320;53.214;6.556;2023-05-01T16:07:42;15.20;99.90
51908;DHT22;39320;53.214;6.556;2023-05-01T16:10:09;15.20;99.90
51908;DHT22;39320;53.214;6.556;2023-05-01T16:12:35;15.20;99.90